sensor_id;sensor_type;location;lat;lon;timestamp;temperature;humidity
43679;DHT22;29279;50.858;4.392;2023-05-08T00:00:22;18.50;99.90
43679;DHT22;29279;50.858;4.392;2023-05-08T00:02:48;18.40;99.90
43679;DHT22;29279;50.858;4.392;2023-05-08T00:05:14;18.40;99.90
43679;DHT22;29279;50.858;4.392;2023-05-08T00:07:40;18.30;99.90
43679;DHT22;29279;50.858;4.392;2023-05-08T00:10:07;18.30;99.90
43679;DHT22;29279;50.858;4.392;2023-05-08T00:12:34;18.30;99.90
43679;DHT22;29279;50.858;4.392;2023-05-08T00:15:00;18.20;99.90
43679;DHT22;29279;50.858;4.392;2023-05-08T00:17:26;18.10;99.90
43679;DHT22;29279;50.858;4.392;2023-05-08T00:19:52;18.10;99.90
43679;DHT22;29279;50.858;4.392;2023-05-08T00:22:18;18.00;99.90
43679;DHT22;29279;50.858;4.392;2023-05-08T00:24:44;17.90;99.90
43679;DHT22;29279;50.858;4.392;2023-05-08T00:27:10;17.90;99.90
43679;DHT22;29279;50.858;4.392;2023-05-08T00:29:36;17.70;99.90
43679;DHT22;29279;50.858;4.392;2023-05-08T00:32:05;17.70;99.90
43679;DHT22;29279;50.858;4.392;2023-05-08T00:34:30;17.80;99.90
43679;DHT22;29279;50.858;4.392;2023-05-08T00:36:56;17.80;99.90
43679;DHT22;29279;50.858;4.392;2023-05-08T00:39:22;17.70;99.90
43679;DHT22;29279;50.858;4.392;2023-05-08T00:41:48;17.70;99.90
43679;DHT22;29279;50.858;4.392;2023-05-08T00:44:13;17.70;99.90
43679;DHT22;29279;50.858;4.392;2023-05-08T00:46:40;17.70;99.90
43679;DHT22;29279;50.858;4.392;2023-05-08T00:49:06;17.70;99.90
43679;DHT22;29279;50.858;4.392;2023-05-08T00:51:34;17.80;99.90
43679;DHT22;29279;50.858;4.392;2023-05-08T00:54:00;17.90;99.90
43679;DHT22;29279;50.858;4.392;2023-05-08T00:56:28;18.00;99.90
43679;DHT22;29279;50.858;4.392;2023-05-08T00:58:55;18.00;99.90
43679;DHT22;29279;50.858;4.392;2023-05-08T01:01:21;18.00;99.90
43679;DHT22;29279;50.858;4.392;2023-05-08T01:03:48;18.00;99.90
43679;DHT22;29279;50.858;4.392;2023-05-08T01:06:13;18.00;99.90
43679;DHT22;29279;50.858;4.392;2023-05-08T01:08:39;17.80;99.90
43679;DHT22;29279;50.858;4.392;2023-05-08T01:11:17;17.70;99.90
43679;DHT22;29279;50.858;4.392;2023-05-08T01:19:45;17.50;99.90
43679;DHT22;29279;50.858;4.392;2023-05-08T01:28:27;17.50;99.90
43679;DHT22;29279;50.858;4.392;2023-05-08T01:31:10;17.50;99.90
43679;DHT22;29279;50.858;4.392;2023-05-08T01:34:11;17.50;99.90
43679;DHT22;29279;50.858;4.392;2023-05-08T01:36:47;17.50;99.90
43679;DHT22;29279;50.858;4.392;2023-05-08T01:42:42;17.60;99.90
43679;DHT22;29279;50.858;4.392;2023-05-08T01:45:14;17.70;99.90
43679;DHT22;29279;50.858;4.392;2023-05-08T01:47:41;17.60;99.90
43679;DHT22;29279;50.858;4.392;2023-05-08T01:50:18;17.70;99.90
43679;DHT22;29279;50.858;4.392;2023-05-08T01:52:48;17.70;99.90
43679;DHT22;29279;50.858;4.392;2023-05-08T01:55:34;17.70;99.90
43679;DHT22;29279;50.858;4.392;2023-05-08T01:58:06;17.80;99.90
43679;DHT22;29279;50.858;4.392;2023-05-08T02:00:33;17.80;99.90
43679;DHT22;29279;50.858;4.392;2023-05-08T02:02:59;17.90;99.90
43679;DHT22;29279;50.858;4.392;2023-05-08T02:05:27;17.90;99.90
43679;DHT22;29279;50.858;4.392;2023-05-08T02:07:53;18.00;99.90
43679;DHT22;29279;50.858;4.392;2023-05-08T02:10:20;18.00;99.90
43679;DHT22;29279;50.858;4.392;2023-05-08T02:12:47;18.00;99.90
43679;DHT22;29279;50.858;4.392;2023-05-08T02:15:15;18.00;99.90
43679;DHT22;29279;50.858;4.392;2023-05-08T02:17:42;17.90;99.90
43679;DHT22;29279;50.858;4.392;2023-05-08T02:20:11;17.90;99.90
43679;DHT22;29279;50.858;4.392;2023-05-08T02:22:44;17.90;99.90
43679;DHT22;29279;50.858;4.392;2023-05-08T02:25:12;17.90;99.90
43679;DHT22;29279;50.858;4.392;2023-05-08T02:27:40;17.90;99.90
43679;DHT22;29279;50.858;4.392;2023-05-08T02:30:13;17.90;99.90
43679;DHT22;29279;50.858;4.392;2023-05-08T02:32:43;17.90;99.90
43679;DHT22;29279;50.858;4.392;2023-05-08T02:35:15;17.90;99.90
43679;DHT22;29279;50.858;4.392;2023-05-08T02:37:44;17.80;99.90
43679;DHT22;29279;50.858;4.392;2023-05-08T02:40:12;17.80;99.90
43679;DHT22;29279;50.858;4.392;2023-05-08T02:42:38;17.80;99.90
43679;DHT22;29279;50.858;4.392;2023-05-08T02:45:05;17.70;99.90
43679;DHT22;29279;50.858;4.392;2023-05-08T02:48:11;17.70;99.90
43679;DHT22;29279;50.858;4.392;2023-05-08T02:50:44;17.80;99.90
43679;DHT22;29279;50.858;4.392;2023-05-08T02:53:21;17.70;99.90
43679;DHT22;29279;50.858;4.392;2023-05-08T02:55:53;17.70;99.90
43679;DHT22;29279;50.858;4.392;2023-05-08T02:58:30;17.60;99.90
43679;DHT22;29279;50.858;4.392;2023-05-08T03:01:04;17.70;99.90
43679;DHT22;29279;50.858;4.392;2023-05-08T03:03:47;17.70;99.90
43679;DHT22;29279;50.858;4.392;2023-05-08T03:06:20;17.70;99.90
43679;DHT22;29279;50.858;4.392;2023-05-08T03:08:47;17.60;99.90
43679;DHT22;29279;50.858;4.392;2023-05-08T03:11:25;17.60;99.90
43679;DHT22;29279;50.858;4.392;2023-05-08T03:13:56;17.70;99.90
43679;DHT22;29279;50.858;4.392;2023-05-08T03:16:24;17.70;99.90
43679;DHT22;29279;50.858;4.392;2023-05-08T03:19:06;17.70;99.90
43679;DHT22;29279;50.858;4.392;2023-05-08T03:21:32;17.60;99.90
43679;DHT22;29279;50.858;4.392;2023-05-08T03:23:59;17.50;99.90
43679;DHT22;29279;50.858;4.392;2023-05-08T03:26:26;17.50;99.90
43679;DHT22;29279;50.858;4.392;2023-05-08T03:28:53;17.50;99.90
43679;DHT22;29279;50.858;4.392;2023-05-08T03:31:21;17.50;99.90
43679;DHT22;29279;50.858;4.392;2023-05-08T03:33:51;17.40;99.90
43679;DHT22;29279;50.858;4.392;2023-05-08T03:36:18;17.50;99.90
43679;DHT22;29279;50.858;4.392;2023-05-08T03:38:44;17.50;99.90
43679;DHT22;29279;50.858;4.392;2023-05-08T03:41:11;17.50;99.90
43679;DHT22;29279;50.858;4.392;2023-05-08T03:43:37;17.50;99.90
43679;DHT22;29279;50.858;4.392;2023-05-08T03:46:07;17.50;99.90
43679;DHT22;29279;50.858;4.392;2023-05-08T03:48:33;17.50;99.90
43679;DHT22;29279;50.858;4.392;2023-05-08T03:51:03;17.40;99.90
43679;DHT22;29279;50.858;4.392;2023-05-08T03:53:30;17.40;99.90
43679;DHT22;29279;50.858;4.392;2023-05-08T03:55:57;17.40;99.90
43679;DHT22;29279;50.858;4.392;2023-05-08T04:01:39;17.30;99.90
43679;DHT22;29279;50.858;4.392;2023-05-08T04:04:20;17.30;99.90
43679;DHT22;29279;50.858;4.392;2023-05-08T04:06:49;17.30;99.90
43679;DHT22;29279;50.858;4.392;2023-05-08T04:12:10;17.30;99.90
43679;DHT22;29279;50.858;4.392;2023-05-08T04:14:44;17.30;99.90
43679;DHT22;29279;50.858;4.392;2023-05-08T04:17:16;17.30;99.90
43679;DHT22;29279;50.858;4.392;2023-05-08T04:19:50;17.30;99.90
43679;DHT22;29279;50.858;4.392;2023-05-08T04:22:19;17.30;99.90
43679;DHT22;29279;50.858;4.392;2023-05-08T04:24:48;17.20;99.90
43679;DHT22;29279;50.858;4.392;2023-05-08T04:27:15;17.20;99.90
43679;DHT22;29279;50.858;4.392;2023-05-08T04:29:41;17.20;99.90
43679;DHT22;29279;50.858;4.392;2023-05-08T04:32:08;17.20;99.90
43679;DHT22;29279;50.858;4.392;2023-05-08T04:34:37;17.10;99.90
43679;DHT22;29279;50.858;4.392;2023-05-08T04:37:05;17.10;99.90
43679;DHT22;29279;50.858;4.392;2023-05-08T04:39:32;17.10;99.90
43679;DHT22;29279;50.858;4.392;2023-05-08T04:41:57;17.10;99.90
43679;DHT22;29279;50.858;4.392;2023-05-08T04:44:28;17.00;99.90
43679;DHT22;29279;50.858;4.392;2023-05-08T04:46:54;17.00;99.90
43679;DHT22;29279;50.858;4.392;2023-05-08T04:49:20;17.10;99.90
43679;DHT22;29279;50.858;4.392;2023-05-08T04:51:45;17.10;99.90
43679;DHT22;29279;50.858;4.392;2023-05-08T04:54:11;17.20;99.90
43679;DHT22;29279;50.858;4.392;2023-05-08T04:56:36;17.30;99.90
43679;DHT22;29279;50.858;4.392;2023-05-08T04:59:02;17.30;99.90
43679;DHT22;29279;50.858;4.392;2023-05-08T05:01:28;17.30;99.90
43679;DHT22;29279;50.858;4.392;2023-05-08T05:03:53;17.40;99.90
43679;DHT22;29279;50.858;4.392;2023-05-08T05:06:19;17.30;99.90
43679;DHT22;29279;50.858;4.392;2023-05-08T05:08:45;17.40;99.90
43679;DHT22;29279;50.858;4.392;2023-05-08T05:11:10;17.40;99.90
43679;DHT22;29279;50.858;4.392;2023-05-08T05:13:36;17.40;99.90
43679;DHT22;29279;50.858;4.392;2023-05-08T05:16:02;17.40;99.90
43679;DHT22;29279;50.858;4.392;2023-05-08T05:18:27;17.40;99.90
43679;DHT22;29279;50.858;4.392;2023-05-08T05:20:57;17.50;99.90
43679;DHT22;29279;50.858;4.392;2023-05-08T05:23:22;17.50;99.90
43679;DHT22;29279;50.858;4.392;2023-05-08T05:25:48;17.50;99.90
43679;DHT22;29279;50.858;4.392;2023-05-08T05:28:14;17.50;99.90
43679;DHT22;29279;50.858;4.392;2023-05-08T05:30:40;17.50;99.90
43679;DHT22;29279;50.858;4.392;2023-05-08T05:33:05;17.60;99.90
43679;DHT22;29279;50.858;4.392;2023-05-08T05:35:31;17.50;99.90
43679;DHT22;29279;50.858;4.392;2023-05-08T05:37:57;17.50;99.90
43679;DHT22;29279;50.858;4.392;2023-05-08T05:40:22;17.60;99.90
43679;DHT22;29279;50.858;4.392;2023-05-08T05:42:49;17.60;99.90
43679;DHT22;29279;50.858;4.392;2023-05-08T05:45:15;17.60;99.90
43679;DHT22;29279;50.858;4.392;2023-05-08T05:47:45;17.60;99.90
43679;DHT22;29279;50.858;4.392;2023-05-08T05:50:14;17.60;99.90
43679;DHT22;29279;50.858;4.392;2023-05-08T05:52:40;17.60;99.90
43679;DHT22;29279;50.858;4.392;2023-05-08T05:55:06;17.70;99.90
43679;DHT22;29279;50.858;4.392;2023-05-08T05:57:32;17.70;99.90
43679;DHT22;29279;50.858;4.392;2023-05-08T05:59:58;17.80;99.90
43679;DHT22;29279;50.858;4.392;2023-05-08T06:02:24;17.80;99.90
43679;DHT22;29279;50.858;4.392;2023-05-08T06:04:53;17.90;99.90
43679;DHT22;29279;50.858;4.392;2023-05-08T06:07:19;17.90;99.90
43679;DHT22;29279;50.858;4.392;2023-05-08T06:09:46;18.00;99.90
43679;DHT22;29279;50.858;4.392;2023-05-08T06:12:12;18.00;99.90
43679;DHT22;29279;50.858;4.392;2023-05-08T06:14:38;18.00;99.90
43679;DHT22;29279;50.858;4.392;2023-05-08T06:17:03;17.90;99.90
43679;DHT22;29279;50.858;4.392;2023-05-08T06:19:29;18.00;99.90
43679;DHT22;29279;50.858;4.392;2023-05-08T06:21:55;17.90;99.90
43679;DHT22;29279;50.858;4.392;2023-05-08T06:24:20;17.90;99.90
43679;DHT22;29279;50.858;4.392;2023-05-08T06:26:46;17.90;99.90
43679;DHT22;29279;50.858;4.392;2023-05-08T06:29:12;18.00;99.90
43679;DHT22;29279;50.858;4.392;2023-05-08T06:31:37;18.00;99.90
43679;DHT22;29279;50.858;4.392;2023-05-08T06:34:03;18.00;99.90
43679;DHT22;29279;50.858;4.392;2023-05-08T06:36:29;18.00;99.90
43679;DHT22;29279;50.858;4.392;2023-05-08T06:38:55;18.10;99.90
43679;DHT22;29279;50.858;4.392;2023-05-08T06:41:20;18.10;99.90
43679;DHT22;29279;50.858;4.392;2023-05-08T06:43:46;18.20;99.90
43679;DHT22;29279;50.858;4.392;2023-05-08T06:46:12;18.20;99.90
43679;DHT22;29279;50.858;4.392;2023-05-08T06:48:37;18.30;99.90
43679;DHT22;29279;50.858;4.392;2023-05-08T06:51:03;18.20;99.90
43679;DHT22;29279;50.858;4.392;2023-05-08T06:53:29;18.10;99.90
43679;DHT22;29279;50.858;4.392;2023-05-08T06:55:55;18.00;99.90
43679;DHT22;29279;50.858;4.392;2023-05-08T06:58:23;17.90;99.90
43679;DHT22;29279;50.858;4.392;2023-05-08T07:00:48;17.90;99.90
43679;DHT22;29279;50.858;4.392;2023-05-08T07:03:14;17.80;99.90
43679;DHT22;29279;50.858;4.392;2023-05-08T07:05:40;17.80;99.90
43679;DHT22;29279;50.858;4.392;2023-05-08T07:08:06;17.90;99.90
43679;DHT22;29279;50.858;4.392;2023-05-08T07:10:31;17.80;99.90
43679;DHT22;29279;50.858;4.392;2023-05-08T07:12:57;17.70;99.90
43679;DHT22;29279;50.858;4.392;2023-05-08T07:15:23;17.70;99.90
43679;DHT22;29279;50.858;4.392;2023-05-08T07:17:49;17.60;99.90
43679;DHT22;29279;50.858;4.392;2023-05-08T07:20:15;17.60;99.90
43679;DHT22;29279;50.858;4.392;2023-05-08T07:22:41;17.70;99.90
43679;DHT22;29279;50.858;4.392;2023-05-08T07:25:07;17.70;99.90
43679;DHT22;29279;50.858;4.392;2023-05-08T07:27:33;17.70;99.90
43679;DHT22;29279;50.858;4.392;2023-05-08T07:29:58;17.70;99.90
43679;DHT22;29279;50.858;4.392;2023-05-08T07:32:28;17.70;99.90
43679;DHT22;29279;50.858;4.392;2023-05-08T07:34:55;17.70;99.90
43679;DHT22;29279;50.858;4.392;2023-05-08T07:37:22;17.80;99.90
43679;DHT22;29279;50.858;4.392;2023-05-08T07:39:47;17.80;99.90
43679;DHT22;29279;50.858;4.392;2023-05-08T07:42:13;17.90;99.90
43679;DHT22;29279;50.858;4.392;2023-05-08T07:44:39;17.80;99.90
43679;DHT22;29279;50.858;4.392;2023-05-08T07:47:04;17.80;99.90
43679;DHT22;29279;50.858;4.392;2023-05-08T07:49:30;17.80;99.90
43679;DHT22;29279;50.858;4.392;2023-05-08T07:51:59;17.80;99.90
43679;DHT22;29279;50.858;4.392;2023-05-08T07:54:24;17.90;99.90
43679;DHT22;29279;50.858;4.392;2023-05-08T07:56:51;18.00;99.90
43679;DHT22;29279;50.858;4.392;2023-05-08T07:59:16;18.10;99.90
43679;DHT22;29279;50.858;4.392;2023-05-08T08:01:42;18.20;99.90
43679;DHT22;29279;50.858;4.392;2023-05-08T08:04:12;18.20;99.90
43679;DHT22;29279;50.858;4.392;2023-05-08T08:06:38;18.10;99.90
43679;DHT22;29279;50.858;4.392;2023-05-08T08:09:04;18.20;99.90
43679;DHT22;29279;50.858;4.392;2023-05-08T08:11:30;18.40;99.90
43679;DHT22;29279;50.858;4.392;2023-05-08T08:13:56;18.50;99.90
43679;DHT22;29279;50.858;4.392;2023-05-08T08:16:21;18.60;99.90
43679;DHT22;29279;50.858;4.392;2023-05-08T08:18:47;18.50;99.90
43679;DHT22;29279;50.858;4.392;2023-05-08T08:21:13;18.70;99.90
43679;DHT22;29279;50.858;4.392;2023-05-08T08:23:39;18.60;99.90
43679;DHT22;29279;50.858;4.392;2023-05-08T08:26:04;18.70;99.90
43679;DHT22;29279;50.858;4.392;2023-05-08T08:28:31;18.80;99.90
43679;DHT22;29279;50.858;4.392;2023-05-08T08:30:56;18.80;99.90
43679;DHT22;29279;50.858;4.392;2023-05-08T08:33:22;18.90;99.90
43679;DHT22;29279;50.858;4.392;2023-05-08T08:35:48;18.90;99.90
43679;DHT22;29279;50.858;4.392;2023-05-08T08:38:14;18.80;99.90
43679;DHT22;29279;50.858;4.392;2023-05-08T08:40:41;18.80;99.90
43679;DHT22;29279;50.858;4.392;2023-05-08T08:43:08;18.80;99.90
43679;DHT22;29279;50.858;4.392;2023-05-08T08:45:35;18.80;99.90
43679;DHT22;29279;50.858;4.392;2023-05-08T08:48:02;18.90;99.90
43679;DHT22;29279;50.858;4.392;2023-05-08T08:50:30;18.90;99.90
43679;DHT22;29279;50.858;4.392;2023-05-08T08:53:09;18.90;99.90
43679;DHT22;29279;50.858;4.392;2023-05-08T08:55:39;18.90;99.90
43679;DHT22;29279;50.858;4.392;2023-05-08T09:00:54;18.50;99.90
43679;DHT22;29279;50.858;4.392;2023-05-08T09:03:20;18.40;99.90
43679;DHT22;29279;50.858;4.392;2023-05-08T09:05:47;18.40;99.90
43679;DHT22;29279;50.858;4.392;2023-05-08T09:08:13;18.30;99.90
43679;DHT22;29279;50.858;4.392;2023-05-08T09:10:39;18.30;99.90
43679;DHT22;29279;50.858;4.392;2023-05-08T09:13:05;18.30;99.90
43679;DHT22;29279;50.858;4.392;2023-05-08T09:15:32;18.40;99.90
43679;DHT22;29279;50.858;4.392;2023-05-08T09:17:59;18.40;99.90
43679;DHT22;29279;50.858;4.392;2023-05-08T09:20:25;18.50;99.90
43679;DHT22;29279;50.858;4.392;2023-05-08T09:22:52;18.60;99.90
43679;DHT22;29279;50.858;4.392;2023-05-08T09:25:18;18.60;99.90
43679;DHT22;29279;50.858;4.392;2023-05-08T09:27:44;18.50;99.90
43679;DHT22;29279;50.858;4.392;2023-05-08T09:30:11;18.40;99.90
43679;DHT22;29279;50.858;4.392;2023-05-08T09:32:40;18.40;99.90
43679;DHT22;29279;50.858;4.392;2023-05-08T09:35:07;18.50;99.90
43679;DHT22;29279;50.858;4.392;2023-05-08T09:37:37;18.70;99.90
43679;DHT22;29279;50.858;4.392;2023-05-08T09:40:18;19.10;99.90
43679;DHT22;29279;50.858;4.392;2023-05-08T09:42:46;19.50;99.90
43679;DHT22;29279;50.858;4.392;2023-05-08T09:45:31;19.80;99.90
43679;DHT22;29279;50.858;4.392;2023-05-08T09:47:56;20.10;99.90
43679;DHT22;29279;50.858;4.392;2023-05-08T09:50:22;20.20;99.90
43679;DHT22;29279;50.858;4.392;2023-05-08T09:52:49;20.30;99.90
43679;DHT22;29279;50.858;4.392;2023-05-08T09:55:15;20.30;99.90
43679;DHT22;29279;50.858;4.392;2023-05-08T09:57:55;20.30;99.90
43679;DHT22;29279;50.858;4.392;2023-05-08T10:00:22;20.30;99.90
43679;DHT22;29279;50.858;4.392;2023-05-08T10:02:59;20.50;99.90
43679;DHT22;29279;50.858;4.392;2023-05-08T10:05:29;20.90;99.90
43679;DHT22;29279;50.858;4.392;2023-05-08T10:08:19;21.00;99.90
43679;DHT22;29279;50.858;4.392;2023-05-08T10:10:45;21.10;99.90
43679;DHT22;29279;50.858;4.392;2023-05-08T10:13:11;21.10;99.90
43679;DHT22;29279;50.858;4.392;2023-05-08T10:15:43;20.90;99.90
43679;DHT22;29279;50.858;4.392;2023-05-08T10:18:10;20.60;99.90
43679;DHT22;29279;50.858;4.392;2023-05-08T10:20:40;20.50;99.90
43679;DHT22;29279;50.858;4.392;2023-05-08T10:23:07;20.50;99.90
43679;DHT22;29279;50.858;4.392;2023-05-08T10:25:43;20.60;99.90
43679;DHT22;29279;50.858;4.392;2023-05-08T10:28:16;20.70;99.90
43679;DHT22;29279;50.858;4.392;2023-05-08T10:30:47;21.00;99.90
43679;DHT22;29279;50.858;4.392;2023-05-08T10:33:14;21.10;99.90
43679;DHT22;29279;50.858;4.392;2023-05-08T10:35:42;21.60;99.90
43679;DHT22;29279;50.858;4.392;2023-05-08T10:38:10;21.60;99.90
43679;DHT22;29279;50.858;4.392;2023-05-08T10:40:37;21.60;99.90
43679;DHT22;29279;50.858;4.392;2023-05-08T10:43:04;21.80;99.90
43679;DHT22;29279;50.858;4.392;2023-05-08T10:45:32;21.90;99.90
43679;DHT22;29279;50.858;4.392;2023-05-08T10:48:02;22.20;99.90
43679;DHT22;29279;50.858;4.392;2023-05-08T10:53:37;22.10;99.90
43679;DHT22;29279;50.858;4.392;2023-05-08T10:56:04;21.90;99.90
43679;DHT22;29279;50.858;4.392;2023-05-08T10:58:31;21.80;99.90
43679;DHT22;29279;50.858;4.392;2023-05-08T11:03:32;22.40;99.90
43679;DHT22;29279;50.858;4.392;2023-05-08T11:06:02;22.90;99.90
43679;DHT22;29279;50.858;4.392;2023-05-08T11:08:29;22.70;99.90
43679;DHT22;29279;50.858;4.392;2023-05-08T11:15:59;23.00;99.90
43679;DHT22;29279;50.858;4.392;2023-05-08T11:18:26;23.20;99.90
43679;DHT22;29279;50.858;4.392;2023-05-08T11:21:04;23.00;99.90
43679;DHT22;29279;50.858;4.392;2023-05-08T11:23:34;22.80;99.90
43679;DHT22;29279;50.858;4.392;2023-05-08T11:26:13;22.50;99.90
43679;DHT22;29279;50.858;4.392;2023-05-08T11:31:18;21.80;99.90
43679;DHT22;29279;50.858;4.392;2023-05-08T11:33:44;21.80;99.90
43679;DHT22;29279;50.858;4.392;2023-05-08T11:36:19;21.70;99.90
43679;DHT22;29279;50.858;4.392;2023-05-08T11:41:35;21.60;99.90
43679;DHT22;29279;50.858;4.392;2023-05-08T11:46:50;21.70;99.90
43679;DHT22;29279;50.858;4.392;2023-05-08T11:49:17;21.60;99.90
43679;DHT22;29279;50.858;4.392;2023-05-08T11:51:49;21.80;99.90
43679;DHT22;29279;50.858;4.392;2023-05-08T11:54:17;21.90;99.90
43679;DHT22;29279;50.858;4.392;2023-05-08T11:56:51;22.20;99.90
43679;DHT22;29279;50.858;4.392;2023-05-08T11:59:19;22.30;99.90
43679;DHT22;29279;50.858;4.392;2023-05-08T12:01:48;22.30;99.90
43679;DHT22;29279;50.858;4.392;2023-05-08T12:04:14;22.30;99.90
43679;DHT22;29279;50.858;4.392;2023-05-08T12:06:40;22.30;99.90
43679;DHT22;29279;50.858;4.392;2023-05-08T12:09:14;22.10;99.90
43679;DHT22;29279;50.858;4.392;2023-05-08T12:11:41;22.30;99.90
43679;DHT22;29279;50.858;4.392;2023-05-08T12:14:09;22.60;99.90
43679;DHT22;29279;50.858;4.392;2023-05-08T12:16:36;22.70;99.90
43679;DHT22;29279;50.858;4.392;2023-05-08T12:19:04;22.60;99.90
43679;DHT22;29279;50.858;4.392;2023-05-08T12:21:33;22.60;99.90
43679;DHT22;29279;50.858;4.392;2023-05-08T12:23:59;22.60;99.90
43679;DHT22;29279;50.858;4.392;2023-05-08T12:26:25;22.90;99.90
43679;DHT22;29279;50.858;4.392;2023-05-08T12:28:54;23.90;99.90
43679;DHT22;29279;50.858;4.392;2023-05-08T12:31:23;23.90;99.90
43679;DHT22;29279;50.858;4.392;2023-05-08T12:33:49;23.70;99.90
43679;DHT22;29279;50.858;4.392;2023-05-08T12:36:15;23.70;99.90
43679;DHT22;29279;50.858;4.392;2023-05-08T12:38:40;23.70;99.90
43679;DHT22;29279;50.858;4.392;2023-05-08T12:41:06;23.70;99.90
43679;DHT22;29279;50.858;4.392;2023-05-08T12:43:34;23.60;99.90
43679;DHT22;29279;50.858;4.392;2023-05-08T12:46:02;24.00;99.90
43679;DHT22;29279;50.858;4.392;2023-05-08T12:48:28;23.90;99.90
43679;DHT22;29279;50.858;4.392;2023-05-08T12:51:01;23.80;99.90
43679;DHT22;29279;50.858;4.392;2023-05-08T12:53:30;23.90;99.90
43679;DHT22;29279;50.858;4.392;2023-05-08T12:55:57;24.10;99.90
43679;DHT22;29279;50.858;4.392;2023-05-08T12:58:27;23.80;99.90
43679;DHT22;29279;50.858;4.392;2023-05-08T13:01:08;23.60;99.90
43679;DHT22;29279;50.858;4.392;2023-05-08T13:03:34;23.40;99.90
43679;DHT22;29279;50.858;4.392;2023-05-08T13:06:00;23.50;99.90
43679;DHT22;29279;50.858;4.392;2023-05-08T13:08:34;23.30;99.90
43679;DHT22;29279;50.858;4.392;2023-05-08T13:11:00;23.30;99.90
43679;DHT22;29279;50.858;4.392;2023-05-08T13:13:29;23.10;99.90
43679;DHT22;29279;50.858;4.392;2023-05-08T13:15:55;23.00;99.90
43679;DHT22;29279;50.858;4.392;2023-05-08T13:18:24;23.30;99.90
43679;DHT22;29279;50.858;4.392;2023-05-08T13:20:51;23.50;99.90
43679;DHT22;29279;50.858;4.392;2023-05-08T13:23:16;23.30;99.90
43679;DHT22;29279;50.858;4.392;2023-05-08T13:25:42;23.30;99.90
43679;DHT22;29279;50.858;4.392;2023-05-08T13:28:09;23.20;99.90
43679;DHT22;29279;50.858;4.392;2023-05-08T13:30:35;23.10;99.90
43679;DHT22;29279;50.858;4.392;2023-05-08T13:33:01;23.20;99.90
43679;DHT22;29279;50.858;4.392;2023-05-08T13:35:27;23.30;99.90
43679;DHT22;29279;50.858;4.392;2023-05-08T13:37:57;23.10;99.90
43679;DHT22;29279;50.858;4.392;2023-05-08T13:40:23;23.00;99.90
43679;DHT22;29279;50.858;4.392;2023-05-08T13:42:50;22.80;99.90
43679;DHT22;29279;50.858;4.392;2023-05-08T13:45:16;22.30;99.90
43679;DHT22;29279;50.858;4.392;2023-05-08T13:47:46;22.10;99.90
43679;DHT22;29279;50.858;4.392;2023-05-08T13:50:13;21.90;99.90
43679;DHT22;29279;50.858;4.392;2023-05-08T13:52:40;21.80;99.90
43679;DHT22;29279;50.858;4.392;2023-05-08T13:55:08;21.60;99.90
43679;DHT22;29279;50.858;4.392;2023-05-08T13:57:34;21.60;99.90
43679;DHT22;29279;50.858;4.392;2023-05-08T14:00:00;21.50;99.90
43679;DHT22;29279;50.858;4.392;2023-05-08T14:02:26;21.50;99.90
43679;DHT22;29279;50.858;4.392;2023-05-08T14:04:52;21.50;99.90
43679;DHT22;29279;50.858;4.392;2023-05-08T14:07:18;21.50;99.90
43679;DHT22;29279;50.858;4.392;2023-05-08T14:09:44;21.50;99.90
43679;DHT22;29279;50.858;4.392;2023-05-08T14:12:11;21.40;99.90
43679;DHT22;29279;50.858;4.392;2023-05-08T14:14:37;21.30;99.90
43679;DHT22;29279;50.858;4.392;2023-05-08T14:17:06;21.20;99.90
43679;DHT22;29279;50.858;4.392;2023-05-08T14:19:32;21.20;99.90
43679;DHT22;29279;50.858;4.392;2023-05-08T14:21:58;21.30;99.90
43679;DHT22;29279;50.858;4.392;2023-05-08T14:24:24;21.50;99.90
43679;DHT22;29279;50.858;4.392;2023-05-08T14:26:50;21.80;99.90
43679;DHT22;29279;50.858;4.392;2023-05-08T14:29:16;22.10;99.90
43679;DHT22;29279;50.858;4.392;2023-05-08T14:31:43;22.30;99.90
43679;DHT22;29279;50.858;4.392;2023-05-08T14:34:09;22.60;99.90
43679;DHT22;29279;50.858;4.392;2023-05-08T14:36:35;22.70;99.90
43679;DHT22;29279;50.858;4.392;2023-05-08T14:39:00;22.60;99.90
43679;DHT22;29279;50.858;4.392;2023-05-08T14:41:27;22.50;99.90
43679;DHT22;29279;50.858;4.392;2023-05-08T14:43:53;22.50;99.90
43679;DHT22;29279;50.858;4.392;2023-05-08T14:46:19;22.30;99.90
43679;DHT22;29279;50.858;4.392;2023-05-08T14:48:44;22.20;99.90
43679;DHT22;29279;50.858;4.392;2023-05-08T14:51:10;22.20;99.90
43679;DHT22;29279;50.858;4.392;2023-05-08T14:53:37;22.20;99.90
43679;DHT22;29279;50.858;4.392;2023-05-08T14:56:03;22.00;99.90
43679;DHT22;29279;50.858;4.392;2023-05-08T14:58:28;21.60;99.90
43679;DHT22;29279;50.858;4.392;2023-05-08T15:00:54;21.50;99.90
43679;DHT22;29279;50.858;4.392;2023-05-08T15:03:20;21.40;99.90
43679;DHT22;29279;50.858;4.392;2023-05-08T15:05:45;21.30;99.90
43679;DHT22;29279;50.858;4.392;2023-05-08T15:08:12;21.40;99.90
43679;DHT22;29279;50.858;4.392;2023-05-08T15:10:38;21.40;99.90
43679;DHT22;29279;50.858;4.392;2023-05-08T15:13:03;21.50;99.90
43679;DHT22;29279;50.858;4.392;2023-05-08T15:15:29;21.50;99.90
43679;DHT22;29279;50.858;4.392;2023-05-08T15:17:55;21.30;99.90
43679;DHT22;29279;50.858;4.392;2023-05-08T15:20:21;21.20;99.90
43679;DHT22;29279;50.858;4.392;2023-05-08T15:22:47;21.00;99.90
43679;DHT22;29279;50.858;4.392;2023-05-08T15:25:13;20.90;99.90
43679;DHT22;29279;50.858;4.392;2023-05-08T15:27:38;20.80;99.90
43679;DHT22;29279;50.858;4.392;2023-05-08T15:30:07;20.70;99.90
43679;DHT22;29279;50.858;4.392;2023-05-08T15:32:32;20.70;99.90
43679;DHT22;29279;50.858;4.392;2023-05-08T15:34:59;20.70;99.90
43679;DHT22;29279;50.858;4.392;2023-05-08T15:37:25;20.70;99.90
43679;DHT22;29279;50.858;4.392;2023-05-08T15:39:50;20.60;99.90
43679;DHT22;29279;50.858;4.392;2023-05-08T15:42:16;20.50;99.90
43679;DHT22;29279;50.858;4.392;2023-05-08T15:44:42;20.30;99.90
43679;DHT22;29279;50.858;4.392;2023-05-08T15:47:07;20.30;99.90
43679;DHT22;29279;50.858;4.392;2023-05-08T15:49:33;20.30;99.90
43679;DHT22;29279;50.858;4.392;2023-05-08T15:51:59;20.20;99.90
43679;DHT22;29279;50.858;4.392;2023-05-08T15:54:24;20.20;99.90
43679;DHT22;29279;50.858;4.392;2023-05-08T15:56:50;20.30;99.90
43679;DHT22;29279;50.858;4.392;2023-05-08T15:59:16;20.30;99.90
43679;DHT22;29279;50.858;4.392;2023-05-08T16:01:41;20.10;99.90
43679;DHT22;29279;50.858;4.392;2023-05-08T16:04:07;20.00;99.90
43679;DHT22;29279;50.858;4.392;2023-05-08T16:06:33;20.10;99.90
43679;DHT22;29279;50.858;4.392;2023-05-08T16:08:59;20.00;99.90
43679;DHT22;29279;50.858;4.392;2023-05-08T16:11:32;19.90;99.90
43679;DHT22;29279;50.858;4.392;2023-05-08T16:13:58;19.80;99.90
43679;DHT22;29279;50.858;4.392;2023-05-08T16:16:27;19.70;99.90